VISIB

Not for real navigation. The accuracy of this data is not assured See disclaimer for more information



ICAO NAME COUNTRY WIND Kt GUST Kt VIS m TEMP/DEW C BARO METAR
EKAH Tirstrup Denmark 1 0 150 11/11 29.94 EKAH 221950Z AUTO 04001KT 0150NDV R10R/0400N R28L/0400N FG VV002 11/11 Q1014
CYYB North Bay, Ont. Canada 4 20 200 19/0 29.79 CYYB 221953Z 23004G20KT 0.125SM R08/2400FT/N -RA FG VV001 19/ A2979 RMK FG8 SLP089 DENSITY ALT 2100F
ESCM Uppsala Sweden 2 0 300 2/2 30.21 ESCM 221950Z AUTO 32002KT 0300 R03/0700V1200N R21/0700V1600U FG NCD 02/02 Q1023
KBOK Brookings, Brookings Airport OR United States 8 0 400 15/15 30.00 KBOK 221956Z AUTO 17008KT 0.25SM FG OVC003 15/15 A3000 RMK AO2 RAE55 SLP158 P0007 T01500150
LIMH Pian Rosa Italy 11 0 400 1/0 30.24 LIMH 221855Z VRB11KT 0400 FG VV/// 01/00 Q1024 RMK MON INVIS VAL INVIS VIS MIN 0400

Show more